sensor_id;sensor_type;location;lat;lon;timestamp;P1;durP1;ratioP1;P2;durP2;ratioP2
75499;SDS011;64076;51.466;7.260;2023-08-08T11:45:55;2.13;;;1.30;;
75499;SDS011;64076;51.466;7.260;2023-08-08T11:48:21;2.20;;;1.15;;
75499;SDS011;64076;51.466;7.260;2023-08-08T11:50:47;1.85;;;1.10;;
75499;SDS011;64076;51.466;7.260;2023-08-08T11:53:13;4.45;;;1.67;;
75499;SDS011;64076;51.466;7.260;2023-08-08T11:55:39;2.17;;;0.90;;
75499;SDS011;64076;51.466;7.260;2023-08-08T11:58:06;1.50;;;0.70;;
75499;SDS011;64076;51.466;7.260;2023-08-08T12:00:32;1.77;;;0.77;;
75499;SDS011;64076;51.466;7.260;2023-08-08T12:03:01;1.88;;;0.80;;
75499;SDS011;64076;51.466;7.260;2023-08-08T12:05:29;2.85;;;0.90;;
75499;SDS011;64076;51.466;7.260;2023-08-08T12:07:55;2.87;;;1.10;;
75499;SDS011;64076;51.466;7.260;2023-08-08T12:10:21;1.80;;;0.85;;
75499;SDS011;64076;51.466;7.260;2023-08-08T12:12:55;1.70;;;1.10;;
75499;SDS011;64076;51.466;7.260;2023-08-08T12:15:22;2.95;;;1.25;;
75499;SDS011;64076;51.466;7.260;2023-08-08T12:17:51;1.85;;;1.17;;
75499;SDS011;64076;51.466;7.260;2023-08-08T12:20:17;2.93;;;1.13;;
75499;SDS011;64076;51.466;7.260;2023-08-08T12:22:43;1.92;;;1.20;;
75499;SDS011;64076;51.466;7.260;2023-08-08T12:25:10;3.08;;;1.33;;
75499;SDS011;64076;51.466;7.260;2023-08-08T12:27:36;2.70;;;1.30;;
75499;SDS011;64076;51.466;7.260;2023-08-08T12:30:04;2.03;;;1.10;;
75499;SDS011;64076;51.466;7.260;2023-08-08T12:32:30;3.27;;;1.80;;
75499;SDS011;64076;51.466;7.260;2023-08-08T12:34:57;4.70;;;2.00;;
75499;SDS011;64076;51.466;7.260;2023-08-08T12:37:23;5.05;;;1.67;;
75499;SDS011;64076;51.466;7.260;2023-08-08T12:39:49;3.10;;;1.40;;
75499;SDS011;64076;51.466;7.260;2023-08-08T12:42:15;3.37;;;1.40;;
75499;SDS011;64076;51.466;7.260;2023-08-08T12:44:41;2.25;;;1.60;;
75499;SDS011;64076;51.466;7.260;2023-08-08T12:47:07;4.32;;;1.90;;
75499;SDS011;64076;51.466;7.260;2023-08-08T12:49:33;3.70;;;2.30;;
75499;SDS011;64076;51.466;7.260;2023-08-08T12:51:59;3.92;;;2.20;;
75499;SDS011;64076;51.466;7.260;2023-08-08T12:54:25;3.73;;;1.90;;
75499;SDS011;64076;51.466;7.260;2023-08-08T12:56:51;3.33;;;1.63;;
75499;SDS011;64076;51.466;7.260;2023-08-08T12:59:17;2.40;;;1.88;;
75499;SDS011;64076;51.466;7.260;2023-08-08T13:01:43;3.35;;;1.90;;
75499;SDS011;64076;51.466;7.260;2023-08-08T13:04:09;2.63;;;1.70;;
75499;SDS011;64076;51.466;7.260;2023-08-08T13:06:36;3.67;;;2.08;;
75499;SDS011;64076;51.466;7.260;2023-08-08T13:09:02;4.35;;;2.35;;
75499;SDS011;64076;51.466;7.260;2023-08-08T13:11:28;4.00;;;2.17;;
75499;SDS011;64076;51.466;7.260;2023-08-08T13:13:54;3.30;;;1.90;;
75499;SDS011;64076;51.466;7.260;2023-08-08T13:16:20;3.38;;;1.95;;
75499;SDS011;64076;51.466;7.260;2023-08-08T13:18:46;2.58;;;1.77;;
75499;SDS011;64076;51.466;7.260;2023-08-08T13:21:12;2.85;;;1.60;;
75499;SDS011;64076;51.466;7.260;2023-08-08T13:23:38;3.90;;;2.00;;
75499;SDS011;64076;51.466;7.260;2023-08-08T13:26:04;2.47;;;1.87;;
75499;SDS011;64076;51.466;7.260;2023-08-08T13:28:30;3.08;;;1.80;;
75499;SDS011;64076;51.466;7.260;2023-08-08T13:30:56;3.55;;;1.83;;
75499;SDS011;64076;51.466;7.260;2023-08-08T13:33:23;3.03;;;1.90;;
75499;SDS011;64076;51.466;7.260;2023-08-08T13:35:49;2.77;;;1.80;;
75499;SDS011;64076;51.466;7.260;2023-08-08T13:38:15;3.30;;;1.63;;
75499;SDS011;64076;51.466;7.260;2023-08-08T13:40:41;3.15;;;1.95;;
75499;SDS011;64076;51.466;7.260;2023-08-08T13:43:07;1.98;;;1.50;;
75499;SDS011;64076;51.466;7.260;2023-08-08T13:45:33;3.65;;;1.80;;
75499;SDS011;64076;51.466;7.260;2023-08-08T13:47:59;2.60;;;1.60;;
75499;SDS011;64076;51.466;7.260;2023-08-08T13:50:25;2.35;;;1.75;;
75499;SDS011;64076;51.466;7.260;2023-08-08T13:52:51;2.10;;;1.52;;
75499;SDS011;64076;51.466;7.260;2023-08-08T13:55:18;2.42;;;1.85;;
75499;SDS011;64076;51.466;7.260;2023-08-08T13:57:44;1.93;;;1.40;;
75499;SDS011;64076;51.466;7.260;2023-08-08T14:00:10;3.80;;;1.60;;
75499;SDS011;64076;51.466;7.260;2023-08-08T14:02:37;2.85;;;1.65;;
75499;SDS011;64076;51.466;7.260;2023-08-08T14:05:03;2.65;;;1.67;;
75499;SDS011;64076;51.466;7.260;2023-08-08T14:07:31;2.13;;;1.65;;
75499;SDS011;64076;51.466;7.260;2023-08-08T14:09:57;2.97;;;1.63;;
75499;SDS011;64076;51.466;7.260;2023-08-08T14:12:23;2.40;;;1.90;;
75499;SDS011;64076;51.466;7.260;2023-08-08T14:14:49;2.22;;;1.58;;
75499;SDS011;64076;51.466;7.260;2023-08-08T14:17:15;2.17;;;1.70;;
75499;SDS011;64076;51.466;7.260;2023-08-08T14:19:41;2.83;;;1.80;;
75499;SDS011;64076;51.466;7.260;2023-08-08T14:22:07;2.60;;;1.83;;
75499;SDS011;64076;51.466;7.260;2023-08-08T14:24:33;3.00;;;1.90;;
75499;SDS011;64076;51.466;7.260;2023-08-08T14:27:02;2.77;;;1.90;;
75499;SDS011;64076;51.466;7.260;2023-08-08T14:29:28;3.00;;;1.77;;
75499;SDS011;64076;51.466;7.260;2023-08-08T14:31:54;2.92;;;1.80;;
75499;SDS011;64076;51.466;7.260;2023-08-08T14:34:27;2.17;;;1.80;;
75499;SDS011;64076;51.466;7.260;2023-08-08T14:36:54;2.47;;;1.30;;
75499;SDS011;64076;51.466;7.260;2023-08-08T14:39:20;2.72;;;1.50;;
75499;SDS011;64076;51.466;7.260;2023-08-08T14:41:46;2.83;;;1.70;;
75499;SDS011;64076;51.466;7.260;2023-08-08T14:44:12;2.45;;;1.50;;
75499;SDS011;64076;51.466;7.260;2023-08-08T14:46:38;1.90;;;1.47;;
75499;SDS011;64076;51.466;7.260;2023-08-08T14:49:04;2.75;;;1.70;;
75499;SDS011;64076;51.466;7.260;2023-08-08T14:51:30;2.95;;;1.50;;
75499;SDS011;64076;51.466;7.260;2023-08-08T14:53:57;2.25;;;1.40;;
75499;SDS011;64076;51.466;7.260;2023-08-08T14:56:23;2.67;;;1.60;;
75499;SDS011;64076;51.466;7.260;2023-08-08T14:58:49;2.05;;;1.33;;
75499;SDS011;64076;51.466;7.260;2023-08-08T15:01:15;2.72;;;1.55;;
75499;SDS011;64076;51.466;7.260;2023-08-08T15:03:41;3.00;;;1.63;;
75499;SDS011;64076;51.466;7.260;2023-08-08T15:06:07;2.73;;;1.30;;
75499;SDS011;64076;51.466;7.260;2023-08-08T15:08:33;2.50;;;1.90;;
75499;SDS011;64076;51.466;7.260;2023-08-08T15:10:59;2.40;;;1.90;;
75499;SDS011;64076;51.466;7.260;2023-08-08T15:13:25;3.50;;;2.00;;
75499;SDS011;64076;51.466;7.260;2023-08-08T15:15:51;3.53;;;1.67;;
75499;SDS011;64076;51.466;7.260;2023-08-08T15:18:17;2.40;;;1.40;;
75499;SDS011;64076;51.466;7.260;2023-08-08T15:20:43;2.28;;;1.40;;
75499;SDS011;64076;51.466;7.260;2023-08-08T15:23:09;2.45;;;1.58;;
75499;SDS011;64076;51.466;7.260;2023-08-08T15:25:35;2.42;;;1.42;;
75499;SDS011;64076;51.466;7.260;2023-08-08T15:28:02;2.78;;;1.40;;
75499;SDS011;64076;51.466;7.260;2023-08-08T15:30:29;2.00;;;1.40;;
75499;SDS011;64076;51.466;7.260;2023-08-08T15:32:55;2.97;;;1.40;;
75499;SDS011;64076;51.466;7.260;2023-08-08T15:35:21;2.33;;;1.17;;
75499;SDS011;64076;51.466;7.260;2023-08-08T15:37:46;2.10;;;1.30;;
75499;SDS011;64076;51.466;7.260;2023-08-08T15:40:12;2.22;;;1.30;;
75499;SDS011;64076;51.466;7.260;2023-08-08T15:42:38;2.27;;;1.33;;
75499;SDS011;64076;51.466;7.260;2023-08-08T15:45:05;2.05;;;1.30;;
75499;SDS011;64076;51.466;7.260;2023-08-08T15:47:32;2.33;;;1.20;;
75499;SDS011;64076;51.466;7.260;2023-08-08T15:49:58;1.80;;;1.30;;
75499;SDS011;64076;51.466;7.260;2023-08-08T15:52:25;2.00;;;1.10;;
75499;SDS011;64076;51.466;7.260;2023-08-08T15:54:51;1.40;;;0.80;;
75499;SDS011;64076;51.466;7.260;2023-08-08T15:57:17;1.70;;;1.00;;
75499;SDS011;64076;51.466;7.260;2023-08-08T15:59:43;2.30;;;1.13;;
75499;SDS011;64076;51.466;7.260;2023-08-08T16:02:09;1.70;;;1.10;;
75499;SDS011;64076;51.466;7.260;2023-08-08T16:04:36;1.70;;;1.10;;
75499;SDS011;64076;51.466;7.260;2023-08-08T16:07:01;1.33;;;0.80;;
75499;SDS011;64076;51.466;7.260;2023-08-08T16:09:28;1.92;;;0.90;;
75499;SDS011;64076;51.466;7.260;2023-08-08T16:11:54;2.25;;;1.00;;
75499;SDS011;64076;51.466;7.260;2023-08-08T16:14:20;1.40;;;0.80;;
75499;SDS011;64076;51.466;7.260;2023-08-08T16:16:46;1.42;;;0.85;;
75499;SDS011;64076;51.466;7.260;2023-08-08T16:19:12;1.65;;;1.10;;
75499;SDS011;64076;51.466;7.260;2023-08-08T16:21:38;1.80;;;1.20;;
75499;SDS011;64076;51.466;7.260;2023-08-08T16:24:04;1.77;;;1.17;;
75499;SDS011;64076;51.466;7.260;2023-08-08T16:26:30;1.90;;;1.10;;
75499;SDS011;64076;51.466;7.260;2023-08-08T16:28:56;1.60;;;0.90;;
75499;SDS011;64076;51.466;7.260;2023-08-08T16:31:23;1.77;;;1.20;;
75499;SDS011;64076;51.466;7.260;2023-08-08T16:33:49;1.58;;;0.80;;
75499;SDS011;64076;51.466;7.260;2023-08-08T16:36:15;1.47;;;0.80;;
75499;SDS011;64076;51.466;7.260;2023-08-08T16:38:41;1.55;;;0.90;;
75499;SDS011;64076;51.466;7.260;2023-08-08T16:41:07;1.65;;;0.90;;
75499;SDS011;64076;51.466;7.260;2023-08-08T16:43:36;1.60;;;0.90;;
75499;SDS011;64076;51.466;7.260;2023-08-08T16:46:02;1.90;;;1.17;;
75499;SDS011;64076;51.466;7.260;2023-08-08T16:48:29;1.52;;;1.00;;
75499;SDS011;64076;51.466;7.260;2023-08-08T16:50:55;1.95;;;1.00;;
75499;SDS011;64076;51.466;7.260;2023-08-08T16:53:21;2.40;;;1.00;;
75499;SDS011;64076;51.466;7.260;2023-08-08T16:55:47;1.45;;;0.90;;
75499;SDS011;64076;51.466;7.260;2023-08-08T16:58:14;1.50;;;0.90;;
75499;SDS011;64076;51.466;7.260;2023-08-08T17:00:40;1.95;;;1.10;;
75499;SDS011;64076;51.466;7.260;2023-08-08T17:03:06;1.70;;;1.10;;
75499;SDS011;64076;51.466;7.260;2023-08-08T17:05:33;1.70;;;1.00;;
75499;SDS011;64076;51.466;7.260;2023-08-08T17:07:59;1.87;;;1.07;;
75499;SDS011;64076;51.466;7.260;2023-08-08T17:10:25;1.65;;;0.98;;
75499;SDS011;64076;51.466;7.260;2023-08-08T17:12:51;2.42;;;1.20;;
75499;SDS011;64076;51.466;7.260;2023-08-08T17:15:17;1.75;;;0.95;;
75499;SDS011;64076;51.466;7.260;2023-08-08T17:17:43;1.83;;;1.05;;
75499;SDS011;64076;51.466;7.260;2023-08-08T17:20:09;1.87;;;1.10;;
75499;SDS011;64076;51.466;7.260;2023-08-08T17:22:35;2.28;;;1.30;;
75499;SDS011;64076;51.466;7.260;2023-08-08T17:25:01;2.08;;;1.30;;
75499;SDS011;64076;51.466;7.260;2023-08-08T17:27:27;1.88;;;1.13;;
75499;SDS011;64076;51.466;7.260;2023-08-08T17:29:55;2.13;;;1.20;;
75499;SDS011;64076;51.466;7.260;2023-08-08T17:32:21;1.77;;;1.20;;
75499;SDS011;64076;51.466;7.260;2023-08-08T17:34:47;1.80;;;1.20;;
75499;SDS011;64076;51.466;7.260;2023-08-08T17:37:13;2.17;;;1.20;;
75499;SDS011;64076;51.466;7.260;2023-08-08T17:39:39;2.13;;;1.30;;
75499;SDS011;64076;51.466;7.260;2023-08-08T17:42:05;1.73;;;1.27;;
75499;SDS011;64076;51.466;7.260;2023-08-08T17:44:32;1.98;;;1.33;;
75499;SDS011;64076;51.466;7.260;2023-08-08T17:46:57;2.17;;;1.48;;
75499;SDS011;64076;51.466;7.260;2023-08-08T17:49:23;1.95;;;1.20;;
75499;SDS011;64076;51.466;7.260;2023-08-08T17:51:49;1.90;;;1.33;;
75499;SDS011;64076;51.466;7.260;2023-08-08T17:54:15;1.70;;;1.30;;
75499;SDS011;64076;51.466;7.260;2023-08-08T17:56:41;2.72;;;1.30;;
75499;SDS011;64076;51.466;7.260;2023-08-08T17:59:07;2.03;;;1.30;;
75499;SDS011;64076;51.466;7.260;2023-08-08T18:01:33;2.63;;;1.60;;
75499;SDS011;64076;51.466;7.260;2023-08-08T18:03:59;2.35;;;1.63;;
75499;SDS011;64076;51.466;7.260;2023-08-08T18:06:25;2.00;;;1.38;;
75499;SDS011;64076;51.466;7.260;2023-08-08T18:08:53;1.73;;;1.33;;
75499;SDS011;64076;51.466;7.260;2023-08-08T18:11:19;2.00;;;1.40;;
75499;SDS011;64076;51.466;7.260;2023-08-08T18:13:45;2.10;;;1.58;;
75499;SDS011;64076;51.466;7.260;2023-08-08T18:16:13;2.40;;;1.70;;
75499;SDS011;64076;51.466;7.260;2023-08-08T18:18:39;2.00;;;1.60;;
75499;SDS011;64076;51.466;7.260;2023-08-08T18:21:05;2.50;;;1.80;;
75499;SDS011;64076;51.466;7.260;2023-08-08T18:23:31;2.13;;;1.52;;
75499;SDS011;64076;51.466;7.260;2023-08-08T18:25:57;2.47;;;1.58;;
75499;SDS011;64076;51.466;7.260;2023-08-08T18:28:25;1.88;;;1.58;;
75499;SDS011;64076;51.466;7.260;2023-08-08T18:30:51;2.23;;;1.70;;
75499;SDS011;64076;51.466;7.260;2023-08-08T18:33:17;2.28;;;1.70;;
75499;SDS011;64076;51.466;7.260;2023-08-08T18:35:43;3.40;;;1.90;;
75499;SDS011;64076;51.466;7.260;2023-08-08T18:38:09;2.33;;;1.80;;
75499;SDS011;64076;51.466;7.260;2023-08-08T18:40:35;2.30;;;1.70;;
75499;SDS011;64076;51.466;7.260;2023-08-08T18:43:01;2.20;;;1.70;;
75499;SDS011;64076;51.466;7.260;2023-08-08T18:45:27;2.30;;;1.58;;
75499;SDS011;64076;51.466;7.260;2023-08-08T18:47:53;3.45;;;1.90;;
75499;SDS011;64076;51.466;7.260;2023-08-08T18:50:19;2.60;;;1.80;;
75499;SDS011;64076;51.466;7.260;2023-08-08T18:52:45;2.50;;;1.70;;
75499;SDS011;64076;51.466;7.260;2023-08-08T18:55:11;2.50;;;2.17;;
75499;SDS011;64076;51.466;7.260;2023-08-08T18:57:37;2.30;;;1.40;;
75499;SDS011;64076;51.466;7.260;2023-08-08T19:00:03;2.27;;;1.50;;
75499;SDS011;64076;51.466;7.260;2023-08-08T19:02:32;2.20;;;1.80;;
75499;SDS011;64076;51.466;7.260;2023-08-08T19:04:58;2.45;;;1.80;;
75499;SDS011;64076;51.466;7.260;2023-08-08T19:07:23;2.95;;;2.17;;
75499;SDS011;64076;51.466;7.260;2023-08-08T19:09:49;2.50;;;2.20;;
75499;SDS011;64076;51.466;7.260;2023-08-08T19:12:15;2.78;;;1.85;;
75499;SDS011;64076;51.466;7.260;2023-08-08T19:14:41;2.40;;;1.90;;
75499;SDS011;64076;51.466;7.260;2023-08-08T19:17:07;2.60;;;2.15;;
75499;SDS011;64076;51.466;7.260;2023-08-08T19:19:33;2.70;;;2.10;;
75499;SDS011;64076;51.466;7.260;2023-08-08T19:21:59;2.83;;;2.07;;
75499;SDS011;64076;51.466;7.260;2023-08-08T19:24:25;2.35;;;2.10;;
75499;SDS011;64076;51.466;7.260;2023-08-08T19:26:51;2.50;;;1.92;;
75499;SDS011;64076;51.466;7.260;2023-08-08T19:29:17;2.80;;;2.20;;
75499;SDS011;64076;51.466;7.260;2023-08-08T19:31:43;3.13;;;2.63;;
75499;SDS011;64076;51.466;7.260;2023-08-08T19:34:09;3.25;;;2.38;;
75499;SDS011;64076;51.466;7.260;2023-08-08T19:36:35;2.85;;;2.40;;
75499;SDS011;64076;51.466;7.260;2023-08-08T19:39:01;3.05;;;2.40;;
75499;SDS011;64076;51.466;7.260;2023-08-08T19:41:27;2.70;;;2.37;;
75499;SDS011;64076;51.466;7.260;2023-08-08T19:43:53;3.10;;;2.80;;
75499;SDS011;64076;51.466;7.260;2023-08-08T19:46:19;3.42;;;2.75;;
75499;SDS011;64076;51.466;7.260;2023-08-08T19:48:45;4.13;;;2.58;;
75499;SDS011;64076;51.466;7.260;2023-08-08T19:51:12;2.93;;;2.30;;
75499;SDS011;64076;51.466;7.260;2023-08-08T19:53:38;3.05;;;2.45;;
75499;SDS011;64076;51.466;7.260;2023-08-08T19:56:04;3.00;;;2.53;;
75499;SDS011;64076;51.466;7.260;2023-08-08T19:58:29;3.53;;;2.70;;
75499;SDS011;64076;51.466;7.260;2023-08-08T20:00:55;3.00;;;2.43;;
75499;SDS011;64076;51.466;7.260;2023-08-08T20:03:21;3.03;;;2.23;;
75499;SDS011;64076;51.466;7.260;2023-08-08T20:05:47;3.00;;;2.65;;
75499;SDS011;64076;51.466;7.260;2023-08-08T20:08:13;3.72;;;2.78;;
75499;SDS011;64076;51.466;7.260;2023-08-08T20:10:39;3.40;;;2.77;;
75499;SDS011;64076;51.466;7.260;2023-08-08T20:13:05;4.15;;;2.67;;
75499;SDS011;64076;51.466;7.260;2023-08-08T20:15:31;4.13;;;2.90;;
75499;SDS011;64076;51.466;7.260;2023-08-08T20:17:57;3.63;;;3.10;;
75499;SDS011;64076;51.466;7.260;2023-08-08T20:20:23;3.70;;;2.90;;
75499;SDS011;64076;51.466;7.260;2023-08-08T20:22:49;4.15;;;3.08;;
75499;SDS011;64076;51.466;7.260;2023-08-08T20:25:15;3.55;;;3.20;;
75499;SDS011;64076;51.466;7.260;2023-08-08T20:27:41;3.40;;;3.10;;
75499;SDS011;64076;51.466;7.260;2023-08-08T20:30:07;3.75;;;3.30;;
75499;SDS011;64076;51.466;7.260;2023-08-08T20:32:33;3.70;;;2.97;;
75499;SDS011;64076;51.466;7.260;2023-08-08T20:34:59;3.80;;;3.33;;
75499;SDS011;64076;51.466;7.260;2023-08-08T20:37:25;3.42;;;3.13;;
75499;SDS011;64076;51.466;7.260;2023-08-08T20:39:52;4.20;;;3.28;;
75499;SDS011;64076;51.466;7.260;2023-08-08T20:42:18;3.83;;;3.40;;
75499;SDS011;64076;51.466;7.260;2023-08-08T20:44:44;4.37;;;3.50;;
75499;SDS011;64076;51.466;7.260;2023-08-08T20:47:10;3.80;;;3.00;;
75499;SDS011;64076;51.466;7.260;2023-08-08T20:49:36;4.70;;;3.20;;
75499;SDS011;64076;51.466;7.260;2023-08-08T20:52:02;4.30;;;3.17;;
75499;SDS011;64076;51.466;7.260;2023-08-08T20:54:27;3.70;;;3.30;;
75499;SDS011;64076;51.466;7.260;2023-08-08T20:56:54;3.47;;;2.90;;
75499;SDS011;64076;51.466;7.260;2023-08-08T20:59:21;5.28;;;3.35;;
75499;SDS011;64076;51.466;7.260;2023-08-08T21:01:47;3.80;;;3.20;;
75499;SDS011;64076;51.466;7.260;2023-08-08T21:04:13;3.67;;;3.10;;
75499;SDS011;64076;51.466;7.260;2023-08-08T21:06:39;4.25;;;3.45;;
75499;SDS011;64076;51.466;7.260;2023-08-08T21:09:05;4.78;;;4.38;;
75499;SDS011;64076;51.466;7.260;2023-08-08T21:11:35;4.68;;;4.15;;
75499;SDS011;64076;51.466;7.260;2023-08-08T21:14:01;4.90;;;4.07;;
75499;SDS011;64076;51.466;7.260;2023-08-08T21:16:26;4.32;;;3.92;;
75499;SDS011;64076;51.466;7.260;2023-08-08T21:18:52;4.82;;;4.20;;
75499;SDS011;64076;51.466;7.260;2023-08-08T21:21:18;4.43;;;4.03;;
75499;SDS011;64076;51.466;7.260;2023-08-08T21:23:44;4.80;;;4.30;;
75499;SDS011;64076;51.466;7.260;2023-08-08T21:26:10;6.10;;;4.07;;
75499;SDS011;64076;51.466;7.260;2023-08-08T21:28:36;5.05;;;4.25;;
75499;SDS011;64076;51.466;7.260;2023-08-08T21:31:02;4.70;;;4.20;;
75499;SDS011;64076;51.466;7.260;2023-08-08T21:33:28;4.38;;;3.88;;
75499;SDS011;64076;51.466;7.260;2023-08-08T21:35:54;4.40;;;4.00;;
75499;SDS011;64076;51.466;7.260;2023-08-08T21:38:20;4.93;;;4.40;;
75499;SDS011;64076;51.466;7.260;2023-08-08T21:40:46;4.60;;;4.20;;
75499;SDS011;64076;51.466;7.260;2023-08-08T21:43:12;4.75;;;4.32;;
75499;SDS011;64076;51.466;7.260;2023-08-08T21:45:38;5.35;;;4.50;;
75499;SDS011;64076;51.466;7.260;2023-08-08T21:48:04;4.90;;;4.40;;
75499;SDS011;64076;51.466;7.260;2023-08-08T21:50:30;4.70;;;4.20;;
75499;SDS011;64076;51.466;7.260;2023-08-08T21:52:56;4.68;;;4.22;;
75499;SDS011;64076;51.466;7.260;2023-08-08T21:55:22;4.78;;;4.28;;
75499;SDS011;64076;51.466;7.260;2023-08-08T21:57:48;4.82;;;4.35;;
75499;SDS011;64076;51.466;7.260;2023-08-08T22:00:14;4.87;;;4.40;;
75499;SDS011;64076;51.466;7.260;2023-08-08T22:02:40;4.80;;;4.30;;
75499;SDS011;64076;51.466;7.260;2023-08-08T22:05:06;4.88;;;4.35;;
75499;SDS011;64076;51.466;7.260;2023-08-08T22:07:32;4.88;;;4.30;;
75499;SDS011;64076;51.466;7.260;2023-08-08T22:09:58;4.80;;;4.40;;
75499;SDS011;64076;51.466;7.260;2023-08-08T22:12:26;4.53;;;4.00;;
75499;SDS011;64076;51.466;7.260;2023-08-08T22:14:52;6.50;;;4.57;;
75499;SDS011;64076;51.466;7.260;2023-08-08T22:17:18;4.97;;;4.47;;
75499;SDS011;64076;51.466;7.260;2023-08-08T22:19:44;4.75;;;4.22;;
75499;SDS011;64076;51.466;7.260;2023-08-08T22:22:10;4.67;;;4.00;;
75499;SDS011;64076;51.466;7.260;2023-08-08T22:24:36;4.70;;;3.95;;
75499;SDS011;64076;51.466;7.260;2023-08-08T22:27:02;4.88;;;4.38;;
75499;SDS011;64076;51.466;7.260;2023-08-08T22:29:28;4.80;;;4.30;;
75499;SDS011;64076;51.466;7.260;2023-08-08T22:31:54;5.20;;;4.40;;
75499;SDS011;64076;51.466;7.260;2023-08-08T22:34:20;4.93;;;4.43;;
75499;SDS011;64076;51.466;7.260;2023-08-08T22:36:46;4.70;;;4.20;;
75499;SDS011;64076;51.466;7.260;2023-08-08T22:39:12;5.30;;;4.23;;
75499;SDS011;64076;51.466;7.260;2023-08-08T22:41:38;5.00;;;3.90;;
75499;SDS011;64076;51.466;7.260;2023-08-08T22:44:04;4.78;;;4.28;;
75499;SDS011;64076;51.466;7.260;2023-08-08T22:46:30;5.10;;;4.20;;
75499;SDS011;64076;51.466;7.260;2023-08-08T22:48:56;6.13;;;5.00;;
75499;SDS011;64076;51.466;7.260;2023-08-08T22:51:22;4.60;;;4.00;;
75499;SDS011;64076;51.466;7.260;2023-08-08T22:53:48;4.95;;;4.45;;
75499;SDS011;64076;51.466;7.260;2023-08-08T22:56:14;4.93;;;4.18;;
75499;SDS011;64076;51.466;7.260;2023-08-08T22:58:40;4.90;;;4.30;;
75499;SDS011;64076;51.466;7.260;2023-08-08T23:01:06;4.20;;;3.80;;
75499;SDS011;64076;51.466;7.260;2023-08-08T23:03:32;4.50;;;4.10;;
75499;SDS011;64076;51.466;7.260;2023-08-08T23:05:58;5.10;;;4.20;;
75499;SDS011;64076;51.466;7.260;2023-08-08T23:08:27;5.50;;;4.13;;
75499;SDS011;64076;51.466;7.260;2023-08-08T23:10:54;5.53;;;3.93;;
75499;SDS011;64076;51.466;7.260;2023-08-08T23:13:20;4.90;;;4.03;;
75499;SDS011;64076;51.466;7.260;2023-08-08T23:15:46;4.45;;;4.00;;
75499;SDS011;64076;51.466;7.260;2023-08-08T23:18:12;5.07;;;4.13;;
75499;SDS011;64076;51.466;7.260;2023-08-08T23:20:38;4.67;;;3.90;;
75499;SDS011;64076;51.466;7.260;2023-08-08T23:23:04;4.88;;;3.90;;
75499;SDS011;64076;51.466;7.260;2023-08-08T23:25:31;4.70;;;4.15;;
75499;SDS011;64076;51.466;7.260;2023-08-08T23:27:57;5.18;;;4.68;;
75499;SDS011;64076;51.466;7.260;2023-08-08T23:30:23;5.13;;;4.13;;
75499;SDS011;64076;51.466;7.260;2023-08-08T23:32:49;4.65;;;4.05;;
75499;SDS011;64076;51.466;7.260;2023-08-08T23:35:15;4.38;;;3.78;;
75499;SDS011;64076;51.466;7.260;2023-08-08T23:37:41;4.38;;;3.78;;
75499;SDS011;64076;51.466;7.260;2023-08-08T23:40:07;5.13;;;3.90;;
75499;SDS011;64076;51.466;7.260;2023-08-08T23:42:36;4.63;;;3.90;;
75499;SDS011;64076;51.466;7.260;2023-08-08T23:45:03;4.38;;;3.83;;
75499;SDS011;64076;51.466;7.260;2023-08-08T23:47:32;4.00;;;3.55;;
75499;SDS011;64076;51.466;7.260;2023-08-08T23:49:58;5.20;;;4.70;;
75499;SDS011;64076;51.466;7.260;2023-08-08T23:52:28;4.78;;;3.60;;
75499;SDS011;64076;51.466;7.260;2023-08-08T23:54:54;4.33;;;3.77;;
75499;SDS011;64076;51.466;7.260;2023-08-08T23:57:20;4.68;;;4.15;;
75499;SDS011;64076;51.466;7.260;2023-08-08T23:59:46;4.47;;;4.05;;
